sensor_id;sensor_type;location;lat;lon;timestamp;pressure;altitude;pressure_sealevel;temperature;humidity
63033;BME280;49121;38.932;-9.018;2022-08-24T00:01:12;101069.44;;;20.51;76.09
63033;BME280;49121;38.932;-9.018;2022-08-24T00:03:13;101066.03;;;20.48;76.25
63033;BME280;49121;38.932;-9.018;2022-08-24T00:05:32;101070.50;;;20.47;76.32
63033;BME280;49121;38.932;-9.018;2022-08-24T00:07:51;101059.34;;;20.56;76.09
63033;BME280;49121;38.932;-9.018;2022-08-24T00:09:51;101053.44;;;20.50;76.65
63033;BME280;49121;38.932;-9.018;2022-08-24T00:11:52;101061.72;;;20.26;77.53
63033;BME280;49121;38.932;-9.018;2022-08-24T00:13:52;101067.16;;;20.25;77.64
63033;BME280;49121;38.932;-9.018;2022-08-24T00:15:53;101061.66;;;20.28;77.74
63033;BME280;49121;38.932;-9.018;2022-08-24T00:17:54;101059.19;;;20.23;78.17
63033;BME280;49121;38.932;-9.018;2022-08-24T00:19:54;101061.72;;;20.26;78.28
63033;BME280;49121;38.932;-9.018;2022-08-24T00:21:55;101057.31;;;20.25;78.27
63033;BME280;49121;38.932;-9.018;2022-08-24T00:23:56;101055.50;;;20.26;78.21
63033;BME280;49121;38.932;-9.018;2022-08-24T00:28:15;101054.94;;;20.19;78.86
63033;BME280;49121;38.932;-9.018;2022-08-24T00:30:17;101048.56;;;20.21;78.90
63033;BME280;49121;38.932;-9.018;2022-08-24T00:32:18;101038.84;;;20.20;78.85
63033;BME280;49121;38.932;-9.018;2022-08-24T00:34:19;101046.69;;;20.23;78.86
63033;BME280;49121;38.932;-9.018;2022-08-24T00:36:19;101036.22;;;20.19;79.13
63033;BME280;49121;38.932;-9.018;2022-08-24T00:38:21;101039.06;;;20.16;79.39
63033;BME280;49121;38.932;-9.018;2022-08-24T00:40:27;101035.94;;;20.06;79.81
63033;BME280;49121;38.932;-9.018;2022-08-24T00:42:27;101030.59;;;20.06;80.04
63033;BME280;49121;38.932;-9.018;2022-08-24T00:44:28;101031.19;;;19.94;80.64
63033;BME280;49121;38.932;-9.018;2022-08-24T00:46:31;101037.03;;;20.02;80.41
63033;BME280;49121;38.932;-9.018;2022-08-24T00:48:37;101034.59;;;19.97;80.79
63033;BME280;49121;38.932;-9.018;2022-08-24T00:50:42;101033.72;;;19.97;80.91
63033;BME280;49121;38.932;-9.018;2022-08-24T00:53:12;101035.22;;;20.02;80.83
63033;BME280;49121;38.932;-9.018;2022-08-24T00:55:37;101033.16;;;19.90;81.52
63033;BME280;49121;38.932;-9.018;2022-08-24T00:57:38;101036.59;;;19.92;81.74
63033;BME280;49121;38.932;-9.018;2022-08-24T00:59:42;101025.19;;;19.89;82.04
63033;BME280;49121;38.932;-9.018;2022-08-24T01:01:44;101030.59;;;19.87;82.30
63033;BME280;49121;38.932;-9.018;2022-08-24T01:03:45;101031.63;;;19.85;82.58
63033;BME280;49121;38.932;-9.018;2022-08-24T01:05:46;101035.31;;;19.82;82.79
63033;BME280;49121;38.932;-9.018;2022-08-24T01:07:47;101028.22;;;19.81;82.91
63033;BME280;49121;38.932;-9.018;2022-08-24T01:09:50;101027.56;;;19.76;83.18
63033;BME280;49121;38.932;-9.018;2022-08-24T01:11:51;101027.19;;;19.65;83.61
63033;BME280;49121;38.932;-9.018;2022-08-24T01:13:51;101031.50;;;19.67;83.79
63033;BME280;49121;38.932;-9.018;2022-08-24T01:16:02;101027.88;;;19.68;83.87
63033;BME280;49121;38.932;-9.018;2022-08-24T01:18:04;101026.50;;;19.59;83.86
63033;BME280;49121;38.932;-9.018;2022-08-24T01:20:25;101011.50;;;19.57;84.09
63033;BME280;49121;38.932;-9.018;2022-08-24T01:24:36;101024.03;;;19.55;84.47
63033;BME280;49121;38.932;-9.018;2022-08-24T01:26:46;101026.78;;;19.53;84.66
63033;BME280;49121;38.932;-9.018;2022-08-24T01:28:48;101018.25;;;19.45;84.85
63033;BME280;49121;38.932;-9.018;2022-08-24T01:30:50;101019.53;;;19.36;85.07
63033;BME280;49121;38.932;-9.018;2022-08-24T01:32:55;101016.59;;;19.42;84.98
63033;BME280;49121;38.932;-9.018;2022-08-24T01:34:56;101013.28;;;19.37;85.12
63033;BME280;49121;38.932;-9.018;2022-08-24T01:36:57;101012.47;;;19.35;85.24
63033;BME280;49121;38.932;-9.018;2022-08-24T01:39:05;101016.28;;;19.30;85.59
63033;BME280;49121;38.932;-9.018;2022-08-24T01:41:07;101004.47;;;19.35;85.33
63033;BME280;49121;38.932;-9.018;2022-08-24T01:43:08;101004.66;;;19.31;85.44
63033;BME280;49121;38.932;-9.018;2022-08-24T01:45:10;101008.63;;;19.22;85.90
63033;BME280;49121;38.932;-9.018;2022-08-24T01:49:32;101013.97;;;19.22;85.93
63033;BME280;49121;38.932;-9.018;2022-08-24T01:51:34;101020.09;;;19.24;85.85
63033;BME280;49121;38.932;-9.018;2022-08-24T01:53:34;101011.56;;;19.16;86.25
63033;BME280;49121;38.932;-9.018;2022-08-24T01:55:54;101004.34;;;19.18;86.09
63033;BME280;49121;38.932;-9.018;2022-08-24T01:57:55;101016.94;;;19.14;86.16
63033;BME280;49121;38.932;-9.018;2022-08-24T02:00:03;101014.97;;;19.19;86.10
63033;BME280;49121;38.932;-9.018;2022-08-24T02:02:17;101023.25;;;19.13;86.17
63033;BME280;49121;38.932;-9.018;2022-08-24T02:04:19;101009.91;;;19.13;86.26
63033;BME280;49121;38.932;-9.018;2022-08-24T02:06:21;101024.41;;;19.06;86.82
63033;BME280;49121;38.932;-9.018;2022-08-24T02:08:21;101023.09;;;19.16;86.13
63033;BME280;49121;38.932;-9.018;2022-08-24T02:10:26;101025.97;;;19.32;85.43
63033;BME280;49121;38.932;-9.018;2022-08-24T02:12:27;101024.69;;;19.20;85.97
63033;BME280;49121;38.932;-9.018;2022-08-24T02:14:27;101029.28;;;19.17;86.18
63033;BME280;49121;38.932;-9.018;2022-08-24T02:24:05;101024.84;;;19.17;86.31
63033;BME280;49121;38.932;-9.018;2022-08-24T02:26:07;101022.34;;;19.13;86.81
63033;BME280;49121;38.932;-9.018;2022-08-24T02:28:08;101024.69;;;19.20;86.35
63033;BME280;49121;38.932;-9.018;2022-08-24T02:30:09;101025.88;;;19.34;85.76
63033;BME280;49121;38.932;-9.018;2022-08-24T02:32:10;101028.75;;;19.29;85.92
63033;BME280;49121;38.932;-9.018;2022-08-24T02:34:11;101024.69;;;19.20;86.37
63033;BME280;49121;38.932;-9.018;2022-08-24T02:36:14;101024.44;;;19.27;86.11
63033;BME280;49121;38.932;-9.018;2022-08-24T02:38:14;101023.34;;;19.31;86.04
63033;BME280;49121;38.932;-9.018;2022-08-24T02:40:15;101022.81;;;19.23;86.16
63033;BME280;49121;38.932;-9.018;2022-08-24T02:42:16;101015.75;;;19.21;86.43
63033;BME280;49121;38.932;-9.018;2022-08-24T02:46:36;101015.34;;;19.31;85.92
63033;BME280;49121;38.932;-9.018;2022-08-24T02:51:21;101020.75;;;19.29;86.16
63033;BME280;49121;38.932;-9.018;2022-08-24T02:53:41;101020.09;;;19.24;86.06
63033;BME280;49121;38.932;-9.018;2022-08-24T02:55:42;101016.75;;;19.19;86.43
63033;BME280;49121;38.932;-9.018;2022-08-24T02:57:43;101006.00;;;19.20;86.39
63033;BME280;49121;38.932;-9.018;2022-08-24T02:59:43;101007.03;;;19.18;86.55
63033;BME280;49121;38.932;-9.018;2022-08-24T03:01:44;101008.75;;;19.19;86.55
63033;BME280;49121;38.932;-9.018;2022-08-24T03:03:45;101008.69;;;19.20;86.56
63033;BME280;49121;38.932;-9.018;2022-08-24T03:05:46;101013.97;;;19.22;86.60
63033;BME280;49121;38.932;-9.018;2022-08-24T03:07:47;101016.41;;;19.27;86.58
63033;BME280;49121;38.932;-9.018;2022-08-24T03:09:47;101019.09;;;19.27;86.68
63033;BME280;49121;38.932;-9.018;2022-08-24T03:11:48;101014.50;;;19.30;86.38
63033;BME280;49121;38.932;-9.018;2022-08-24T03:13:50;101014.53;;;19.29;86.39
63033;BME280;49121;38.932;-9.018;2022-08-24T03:15:51;101006.88;;;19.21;86.88
63033;BME280;49121;38.932;-9.018;2022-08-24T03:17:51;101006.88;;;19.21;87.00
63033;BME280;49121;38.932;-9.018;2022-08-24T03:19:52;101008.34;;;19.28;86.38
63033;BME280;49121;38.932;-9.018;2022-08-24T03:21:53;101009.53;;;19.21;86.67
63033;BME280;49121;38.932;-9.018;2022-08-24T03:23:54;101008.84;;;19.17;86.99
63033;BME280;49121;38.932;-9.018;2022-08-24T03:25:55;101002.34;;;19.23;86.79
63033;BME280;49121;38.932;-9.018;2022-08-24T03:30:52;100995.34;;;19.20;87.02
63033;BME280;49121;38.932;-9.018;2022-08-24T03:32:57;101000.13;;;19.12;87.41
63033;BME280;49121;38.932;-9.018;2022-08-24T03:37:35;101003.03;;;19.08;87.84
63033;BME280;49121;38.932;-9.018;2022-08-24T03:39:38;100995.28;;;19.22;87.10
63033;BME280;49121;38.932;-9.018;2022-08-24T03:41:39;101005.47;;;19.12;87.51
63033;BME280;49121;38.932;-9.018;2022-08-24T03:43:40;101006.34;;;19.13;87.69
63033;BME280;49121;38.932;-9.018;2022-08-24T03:48:48;101007.06;;;19.16;87.46
63033;BME280;49121;38.932;-9.018;2022-08-24T03:50:52;100999.88;;;19.18;87.35
63033;BME280;49121;38.932;-9.018;2022-08-24T03:52:53;101006.34;;;19.13;87.67
63033;BME280;49121;38.932;-9.018;2022-08-24T03:54:54;101010.69;;;19.15;87.27
63033;BME280;49121;38.932;-9.018;2022-08-24T03:57:16;101014.16;;;19.17;87.37
63033;BME280;49121;38.932;-9.018;2022-08-24T03:59:17;101009.81;;;19.15;87.61
63033;BME280;49121;38.932;-9.018;2022-08-24T04:01:18;101007.94;;;19.17;87.30
63033;BME280;49121;38.932;-9.018;2022-08-24T04:03:19;101005.75;;;19.27;87.05
63033;BME280;49121;38.932;-9.018;2022-08-24T04:05:19;101009.47;;;19.23;87.13
63033;BME280;49121;38.932;-9.018;2022-08-24T04:07:20;100999.59;;;19.04;88.08
63033;BME280;49121;38.932;-9.018;2022-08-24T04:09:21;101003.03;;;19.08;87.90
63033;BME280;49121;38.932;-9.018;2022-08-24T04:11:23;101003.28;;;19.02;88.13
63033;BME280;49121;38.932;-9.018;2022-08-24T04:18:27;100990.94;;;18.99;88.53
63033;BME280;49121;38.932;-9.018;2022-08-24T04:20:27;100989.88;;;19.03;88.55
63033;BME280;49121;38.932;-9.018;2022-08-24T04:22:29;100990.94;;;18.99;88.48
63033;BME280;49121;38.932;-9.018;2022-08-24T04:24:30;100997.28;;;18.96;88.55
63033;BME280;49121;38.932;-9.018;2022-08-24T04:26:31;101002.88;;;18.90;88.89
63033;BME280;49121;38.932;-9.018;2022-08-24T04:28:32;101001.03;;;18.92;88.85
63033;BME280;49121;38.932;-9.018;2022-08-24T04:30:34;100999.47;;;18.87;89.04
63033;BME280;49121;38.932;-9.018;2022-08-24T04:32:42;100999.53;;;18.85;89.00
63033;BME280;49121;38.932;-9.018;2022-08-24T04:34:42;101006.63;;;18.86;89.02
63033;BME280;49121;38.932;-9.018;2022-08-24T04:36:45;101012.00;;;18.85;89.10
63033;BME280;49121;38.932;-9.018;2022-08-24T04:38:47;101006.81;;;18.82;89.22
63033;BME280;49121;38.932;-9.018;2022-08-24T04:41:05;101010.16;;;18.87;88.87
63033;BME280;49121;38.932;-9.018;2022-08-24T04:43:06;101011.81;;;18.89;88.89
63033;BME280;49121;38.932;-9.018;2022-08-24T04:45:08;101010.84;;;18.92;88.59
63033;BME280;49121;38.932;-9.018;2022-08-24T04:47:09;101009.78;;;18.96;88.48
63033;BME280;49121;38.932;-9.018;2022-08-24T04:49:11;101013.34;;;18.95;88.63
63033;BME280;49121;38.932;-9.018;2022-08-24T04:51:12;101011.69;;;18.92;88.64
63033;BME280;49121;38.932;-9.018;2022-08-24T04:53:13;101015.47;;;18.87;88.94
63033;BME280;49121;38.932;-9.018;2022-08-24T04:55:17;101025.88;;;18.93;88.68
63033;BME280;49121;38.932;-9.018;2022-08-24T04:57:18;101024.44;;;18.86;88.69
63033;BME280;49121;38.932;-9.018;2022-08-24T04:59:20;101022.81;;;18.82;89.00
63033;BME280;49121;38.932;-9.018;2022-08-24T05:01:21;101031.00;;;18.77;89.19
63033;BME280;49121;38.932;-9.018;2022-08-24T05:06:00;101028.53;;;18.72;89.57
63033;BME280;49121;38.932;-9.018;2022-08-24T05:08:01;101032.97;;;18.72;89.82
63033;BME280;49121;38.932;-9.018;2022-08-24T05:10:02;101038.28;;;18.72;89.77
63033;BME280;49121;38.932;-9.018;2022-08-24T05:12:04;101041.06;;;18.70;89.91
63033;BME280;49121;38.932;-9.018;2022-08-24T05:14:09;101041.91;;;18.71;89.90
63033;BME280;49121;38.932;-9.018;2022-08-24T05:16:12;101035.72;;;18.70;89.88
63033;BME280;49121;38.932;-9.018;2022-08-24T05:20:51;101048.16;;;18.70;89.97
63033;BME280;49121;38.932;-9.018;2022-08-24T05:22:52;101046.38;;;18.70;89.98
63033;BME280;49121;38.932;-9.018;2022-08-24T05:24:53;101045.50;;;18.70;89.98
63033;BME280;49121;38.932;-9.018;2022-08-24T05:27:12;101043.78;;;18.69;89.96
63033;BME280;49121;38.932;-9.018;2022-08-24T05:29:13;101047.34;;;18.68;89.87
63033;BME280;49121;38.932;-9.018;2022-08-24T05:31:19;101049.16;;;18.67;89.89
63033;BME280;49121;38.932;-9.018;2022-08-24T05:33:23;101054.50;;;18.67;89.95
63033;BME280;49121;38.932;-9.018;2022-08-24T05:35:26;101058.03;;;18.68;90.00
63033;BME280;49121;38.932;-9.018;2022-08-24T05:37:27;101057.06;;;18.70;90.02
63033;BME280;49121;38.932;-9.018;2022-08-24T05:39:57;101056.31;;;18.67;89.87
63033;BME280;49121;38.932;-9.018;2022-08-24T05:41:58;101058.09;;;18.66;89.98
63033;BME280;49121;38.932;-9.018;2022-08-24T05:44:18;101059.81;;;18.67;89.70
63033;BME280;49121;38.932;-9.018;2022-08-24T05:46:37;101068.78;;;18.66;89.66
63033;BME280;49121;38.932;-9.018;2022-08-24T05:49:08;101069.63;;;18.67;89.87
63033;BME280;49121;38.932;-9.018;2022-08-24T05:51:09;101075.88;;;18.66;90.01
63033;BME280;49121;38.932;-9.018;2022-08-24T05:53:20;101067.88;;;18.66;89.85
63033;BME280;49121;38.932;-9.018;2022-08-24T06:00:18;101086.53;;;18.66;90.33
63033;BME280;49121;38.932;-9.018;2022-08-24T06:02:37;101085.56;;;18.68;90.28
63033;BME280;49121;38.932;-9.018;2022-08-24T06:04:42;101089.09;;;18.69;90.08
63033;BME280;49121;38.932;-9.018;2022-08-24T06:09:03;101086.09;;;18.76;89.84
63033;BME280;49121;38.932;-9.018;2022-08-24T06:11:23;101089.63;;;18.78;89.64
63033;BME280;49121;38.932;-9.018;2022-08-24T06:13:25;101094.78;;;18.83;89.46
63033;BME280;49121;38.932;-9.018;2022-08-24T06:15:25;101104.44;;;18.86;89.36
63033;BME280;49121;38.932;-9.018;2022-08-24T06:17:26;101100.72;;;18.90;89.03
63033;BME280;49121;38.932;-9.018;2022-08-24T06:19:27;101104.13;;;18.93;88.96
63033;BME280;49121;38.932;-9.018;2022-08-24T06:21:29;101102.19;;;18.97;88.94
63033;BME280;49121;38.932;-9.018;2022-08-24T06:23:31;101093.19;;;18.99;88.70
63033;BME280;49121;38.932;-9.018;2022-08-24T06:25:50;101098.22;;;19.07;88.48
63033;BME280;49121;38.932;-9.018;2022-08-24T06:28:09;101099.03;;;19.09;88.31
63033;BME280;49121;38.932;-9.018;2022-08-24T06:30:10;101106.69;;;19.17;88.03
63033;BME280;49121;38.932;-9.018;2022-08-24T06:39:54;101109.91;;;19.46;87.17
63033;BME280;49121;38.932;-9.018;2022-08-24T06:42:13;101112.09;;;19.56;86.56
63033;BME280;49121;38.932;-9.018;2022-08-24T06:44:16;101117.72;;;19.71;86.01
63033;BME280;49121;38.932;-9.018;2022-08-24T06:46:36;101108.50;;;19.57;86.69
63033;BME280;49121;38.932;-9.018;2022-08-24T06:48:37;101120.66;;;19.65;86.37
63033;BME280;49121;38.932;-9.018;2022-08-24T06:50:38;101120.13;;;19.77;86.04
63033;BME280;49121;38.932;-9.018;2022-08-24T06:52:42;101125.25;;;19.81;85.91
63033;BME280;49121;38.932;-9.018;2022-08-24T06:54:43;101124.31;;;19.83;85.47
63033;BME280;49121;38.932;-9.018;2022-08-24T06:56:44;101124.75;;;19.73;86.08
63033;BME280;49121;38.932;-9.018;2022-08-24T07:01:08;101129.91;;;19.97;84.84
63033;BME280;49121;38.932;-9.018;2022-08-24T07:03:09;101133.38;;;20.18;83.94
63033;BME280;49121;38.932;-9.018;2022-08-24T07:05:19;101130.53;;;19.83;84.93
63033;BME280;49121;38.932;-9.018;2022-08-24T07:07:38;101130.06;;;20.13;84.06
63033;BME280;49121;38.932;-9.018;2022-08-24T07:09:39;101132.25;;;20.42;82.20
63033;BME280;49121;38.932;-9.018;2022-08-24T07:11:40;101128.59;;;20.81;81.42
63033;BME280;49121;38.932;-9.018;2022-08-24T07:13:41;101138.91;;;21.60;76.82
63033;BME280;49121;38.932;-9.018;2022-08-24T07:15:41;101145.69;;;21.68;75.69
63033;BME280;49121;38.932;-9.018;2022-08-24T07:17:45;101143.53;;;21.74;74.77
63033;BME280;49121;38.932;-9.018;2022-08-24T07:19:46;101142.59;;;21.75;74.32
63033;BME280;49121;38.932;-9.018;2022-08-24T07:21:54;101142.78;;;21.55;75.33
63033;BME280;49121;38.932;-9.018;2022-08-24T07:23:55;101139.94;;;21.23;76.45
63033;BME280;49121;38.932;-9.018;2022-08-24T07:25:56;101147.81;;;21.61;75.53
63033;BME280;49121;38.932;-9.018;2022-08-24T07:27:56;101145.84;;;22.15;73.93
63033;BME280;49121;38.932;-9.018;2022-08-24T07:34:37;101152.47;;;24.23;63.27
63033;BME280;49121;38.932;-9.018;2022-08-24T07:36:39;101150.97;;;25.02;60.88
63033;BME280;49121;38.932;-9.018;2022-08-24T07:38:40;101152.91;;;25.27;59.96
63033;BME280;49121;38.932;-9.018;2022-08-24T07:40:44;101159.91;;;25.95;57.39
63033;BME280;49121;38.932;-9.018;2022-08-24T07:42:49;101161.84;;;26.56;56.00
63033;BME280;49121;38.932;-9.018;2022-08-24T07:44:50;101160.38;;;27.94;51.26
63033;BME280;49121;38.932;-9.018;2022-08-24T07:47:09;101167.81;;;27.80;50.87
63033;BME280;49121;38.932;-9.018;2022-08-24T07:51:29;101174.59;;;26.90;52.63
63033;BME280;49121;38.932;-9.018;2022-08-24T07:53:29;101175.97;;;27.44;51.08
63033;BME280;49121;38.932;-9.018;2022-08-24T07:55:30;101178.06;;;26.56;53.46
63033;BME280;49121;38.932;-9.018;2022-08-24T07:57:30;101170.56;;;25.84;55.74
63033;BME280;49121;38.932;-9.018;2022-08-24T07:59:32;101177.00;;;25.68;56.70
63033;BME280;49121;38.932;-9.018;2022-08-24T08:04:11;101188.41;;;25.19;58.25
63033;BME280;49121;38.932;-9.018;2022-08-24T08:06:13;101187.16;;;25.25;58.01
63033;BME280;49121;38.932;-9.018;2022-08-24T08:08:14;101191.38;;;24.60;60.12
63033;BME280;49121;38.932;-9.018;2022-08-24T08:10:15;101183.53;;;24.57;60.63
63033;BME280;49121;38.932;-9.018;2022-08-24T08:12:15;101189.19;;;24.94;59.12
63033;BME280;49121;38.932;-9.018;2022-08-24T08:14:27;101191.09;;;25.99;55.84
63033;BME280;49121;38.932;-9.018;2022-08-24T08:16:29;101195.53;;;26.63;55.12
63033;BME280;49121;38.932;-9.018;2022-08-24T08:18:30;101186.84;;;28.13;49.84
63033;BME280;49121;38.932;-9.018;2022-08-24T08:20:35;101193.66;;;27.72;50.42
63033;BME280;49121;38.932;-9.018;2022-08-24T08:22:36;101195.31;;;27.51;51.13
63033;BME280;49121;38.932;-9.018;2022-08-24T08:25:04;101190.25;;;27.93;50.06
63033;BME280;49121;38.932;-9.018;2022-08-24T08:27:07;101188.56;;;28.03;49.78
63033;BME280;49121;38.932;-9.018;2022-08-24T08:29:11;101191.06;;;27.71;50.20
63033;BME280;49121;38.932;-9.018;2022-08-24T08:31:13;101199.38;;;27.68;50.28
63033;BME280;49121;38.932;-9.018;2022-08-24T08:33:15;101194.81;;;27.92;49.69
63033;BME280;49121;38.932;-9.018;2022-08-24T08:35:15;101200.31;;;27.44;50.99
63033;BME280;49121;38.932;-9.018;2022-08-24T08:37:16;101204.31;;;26.90;52.83
63033;BME280;49121;38.932;-9.018;2022-08-24T08:39:18;101196.66;;;26.84;53.15
63033;BME280;49121;38.932;-9.018;2022-08-24T08:43:58;101204.06;;;29.98;44.56
63033;BME280;49121;38.932;-9.018;2022-08-24T08:55:39;101212.94;;;28.48;47.64
63033;BME280;49121;38.932;-9.018;2022-08-24T08:57:45;101224.63;;;27.20;50.72
63033;BME280;49121;38.932;-9.018;2022-08-24T08:59:56;101212.38;;;27.51;50.23
63033;BME280;49121;38.932;-9.018;2022-08-24T09:11:07;101218.47;;;27.18;51.78
63033;BME280;49121;38.932;-9.018;2022-08-24T09:13:26;101220.00;;;27.22;51.31
63033;BME280;49121;38.932;-9.018;2022-08-24T09:22:57;101219.22;;;25.42;56.91
63033;BME280;49121;38.932;-9.018;2022-08-24T09:25:05;101225.41;;;25.97;55.46
63033;BME280;49121;38.932;-9.018;2022-08-24T09:30:16;101234.94;;;25.63;56.62
63033;BME280;49121;38.932;-9.018;2022-08-24T09:32:24;101235.69;;;25.65;56.28
63033;BME280;49121;38.932;-9.018;2022-08-24T09:34:38;101237.81;;;26.00;55.49
63033;BME280;49121;38.932;-9.018;2022-08-24T09:42:04;101239.53;;;28.43;48.14
63033;BME280;49121;38.932;-9.018;2022-08-24T09:58:12;101241.72;;;28.27;48.40
63033;BME280;49121;38.932;-9.018;2022-08-24T09:59:56;101246.53;;;28.68;47.79
63033;BME280;49121;38.932;-9.018;2022-08-24T10:02:19;101236.53;;;28.12;48.63
63033;BME280;49121;38.932;-9.018;2022-08-24T10:04:30;101239.38;;;27.76;49.88
63033;BME280;49121;38.932;-9.018;2022-08-24T10:06:42;101256.53;;;27.63;50.43
63033;BME280;49121;38.932;-9.018;2022-08-24T10:09:05;101255.19;;;26.08;54.37
63033;BME280;49121;38.932;-9.018;2022-08-24T10:13:27;101244.00;;;27.86;50.14
63033;BME280;49121;38.932;-9.018;2022-08-24T10:35:01;101252.00;;;26.91;52.51
63033;BME280;49121;38.932;-9.018;2022-08-24T10:39:28;101241.81;;;26.95;52.60
63033;BME280;49121;38.932;-9.018;2022-08-24T10:41:51;101243.31;;;26.37;54.42
63033;BME280;49121;38.932;-9.018;2022-08-24T10:54:51;101235.72;;;27.04;52.73
63033;BME280;49121;38.932;-9.018;2022-08-24T10:59:38;101242.19;;;26.78;53.72
63033;BME280;49121;38.932;-9.018;2022-08-24T11:04:24;101241.53;;;26.87;53.17
63033;BME280;49121;38.932;-9.018;2022-08-24T11:11:26;101245.13;;;26.62;53.95
63033;BME280;49121;38.932;-9.018;2022-08-24T11:13:27;101228.88;;;26.12;55.61
63033;BME280;49121;38.932;-9.018;2022-08-24T11:15:28;101227.63;;;26.55;54.57
63033;BME280;49121;38.932;-9.018;2022-08-24T11:17:29;101247.53;;;26.90;53.22
63033;BME280;49121;38.932;-9.018;2022-08-24T11:19:33;101239.97;;;26.96;53.16
63033;BME280;49121;38.932;-9.018;2022-08-24T11:21:47;101238.72;;;27.25;52.09
63033;BME280;49121;38.932;-9.018;2022-08-24T11:23:49;101247.41;;;27.05;52.44
63033;BME280;49121;38.932;-9.018;2022-08-24T11:25:58;101236.94;;;27.00;53.18
63033;BME280;49121;38.932;-9.018;2022-08-24T11:28:05;101249.50;;;27.49;51.59
63033;BME280;49121;38.932;-9.018;2022-08-24T11:34:49;101235.28;;;28.05;49.99
63033;BME280;49121;38.932;-9.018;2022-08-24T11:36:50;101230.78;;;27.70;50.38
63033;BME280;49121;38.932;-9.018;2022-08-24T11:41:17;101229.78;;;27.83;50.12
63033;BME280;49121;38.932;-9.018;2022-08-24T11:43:31;101215.38;;;27.60;50.69
63033;BME280;49121;38.932;-9.018;2022-08-24T11:50:20;101227.94;;;27.72;50.72
63033;BME280;49121;38.932;-9.018;2022-08-24T11:58:49;101226.28;;;27.10;52.57
63033;BME280;49121;38.932;-9.018;2022-08-24T12:00:59;101229.16;;;26.96;53.16
63033;BME280;49121;38.932;-9.018;2022-08-24T12:09:20;101241.28;;;27.14;52.32
63033;BME280;49121;38.932;-9.018;2022-08-24T12:13:45;101237.81;;;27.25;52.12
63033;BME280;49121;38.932;-9.018;2022-08-24T12:15:50;101235.81;;;27.40;51.62
63033;BME280;49121;38.932;-9.018;2022-08-24T12:17:56;101227.75;;;27.51;51.55
63033;BME280;49121;38.932;-9.018;2022-08-24T12:20:09;101236.44;;;27.19;52.23
63033;BME280;49121;38.932;-9.018;2022-08-24T12:22:12;101240.00;;;27.44;51.38
63033;BME280;49121;38.932;-9.018;2022-08-24T12:24:15;101233.28;;;27.49;51.17
63033;BME280;49121;38.932;-9.018;2022-08-24T12:26:23;101247.19;;;27.56;50.94
63033;BME280;49121;38.932;-9.018;2022-08-24T12:28:28;101250.09;;;27.05;52.12
63033;BME280;49121;38.932;-9.018;2022-08-24T12:30:29;101242.03;;;27.29;52.06
63033;BME280;49121;38.932;-9.018;2022-08-24T12:32:40;101243.09;;;27.50;51.43
63033;BME280;49121;38.932;-9.018;2022-08-24T12:39:08;101241.28;;;27.27;52.32
63033;BME280;49121;38.932;-9.018;2022-08-24T12:41:19;101234.59;;;27.44;52.16
63033;BME280;49121;38.932;-9.018;2022-08-24T12:45:29;101248.31;;;27.29;52.65
63033;BME280;49121;38.932;-9.018;2022-08-24T12:49:44;101250.69;;;26.84;53.96
63033;BME280;49121;38.932;-9.018;2022-08-24T12:54:17;101243.44;;;26.98;53.32
63033;BME280;49121;38.932;-9.018;2022-08-24T12:58:49;101255.69;;;27.15;52.93
63033;BME280;49121;38.932;-9.018;2022-08-24T13:00:51;101252.09;;;27.14;52.99
63033;BME280;49121;38.932;-9.018;2022-08-24T13:03:00;101258.13;;;27.30;52.40
63033;BME280;49121;38.932;-9.018;2022-08-24T13:10:33;101257.19;;;26.82;54.10
63033;BME280;49121;38.932;-9.018;2022-08-24T13:14:33;101242.47;;;26.86;53.89
63033;BME280;49121;38.932;-9.018;2022-08-24T13:18:48;101246.66;;;26.66;54.78
63033;BME280;49121;38.932;-9.018;2022-08-24T13:25:25;101256.16;;;26.46;55.04
63033;BME280;49121;38.932;-9.018;2022-08-24T13:29:38;101246.44;;;26.30;55.41
63033;BME280;49121;38.932;-9.018;2022-08-24T13:31:42;101239.75;;;26.36;56.33
63033;BME280;49121;38.932;-9.018;2022-08-24T13:40:44;101242.78;;;26.06;56.69
63033;BME280;49121;38.932;-9.018;2022-08-24T13:47:17;101257.69;;;25.99;57.39
63033;BME280;49121;38.932;-9.018;2022-08-24T13:51:36;101251.97;;;25.63;58.22
63033;BME280;49121;38.932;-9.018;2022-08-24T13:55:53;101259.63;;;25.97;57.54
63033;BME280;49121;38.932;-9.018;2022-08-24T14:02:41;101244.47;;;25.94;57.71
63033;BME280;49121;38.932;-9.018;2022-08-24T14:15:29;101247.44;;;25.77;57.80
63033;BME280;49121;38.932;-9.018;2022-08-24T14:17:36;101254.22;;;25.57;58.89
63033;BME280;49121;38.932;-9.018;2022-08-24T14:24:20;101251.06;;;25.50;58.87
63033;BME280;49121;38.932;-9.018;2022-08-24T14:28:42;101252.06;;;25.22;60.11
63033;BME280;49121;38.932;-9.018;2022-08-24T14:30:43;101265.34;;;25.38;59.42
63033;BME280;49121;38.932;-9.018;2022-08-24T14:36:59;101269.75;;;25.66;58.76
63033;BME280;49121;38.932;-9.018;2022-08-24T14:39:25;101265.38;;;25.78;58.28
63033;BME280;49121;38.932;-9.018;2022-08-24T14:41:29;101276.63;;;25.57;58.71
63033;BME280;49121;38.932;-9.018;2022-08-24T14:54:37;101276.19;;;25.23;59.58
63033;BME280;49121;38.932;-9.018;2022-08-24T14:57:24;101277.63;;;25.15;59.67
63033;BME280;49121;38.932;-9.018;2022-08-24T15:03:31;101270.25;;;25.04;60.02
63033;BME280;49121;38.932;-9.018;2022-08-24T15:05:41;101273.31;;;24.98;59.59
63033;BME280;49121;38.932;-9.018;2022-08-24T15:07:53;101268.69;;;24.73;60.85
63033;BME280;49121;38.932;-9.018;2022-08-24T15:09:54;101266.16;;;24.69;61.10
63033;BME280;49121;38.932;-9.018;2022-08-24T15:11:58;101266.56;;;24.63;61.22
63033;BME280;49121;38.932;-9.018;2022-08-24T15:14:01;101278.38;;;24.61;61.28
63033;BME280;49121;38.932;-9.018;2022-08-24T15:16:11;101277.63;;;24.73;60.72
63033;BME280;49121;38.932;-9.018;2022-08-24T15:22:45;101270.78;;;24.82;60.21
63033;BME280;49121;38.932;-9.018;2022-08-24T15:24:51;101262.06;;;25.05;59.39